Castle Hot Springs, Arizona
Current Conditions -  °F | °C
As of 7:53 PM on Tuesday 21 Oct 2014 (Local Time) from KDVT Reporting Station
Clear Clear  
Wind Chill: 75°   Ceiling: Unl
Heat Index: 75°   Visibility: 10mi
Dew Point: 51°   Wind: 3mph
Humidity: 43%   Direction: 110°ESE
Pressure: 29.82"   Gusts: NA
Location:  33.98°N, 112.36°W
Report Text: KDVT 220253Z 11003KT 10SM CLR 24/11 A2982 RMK AO2 SLP078 T02390106 51008
Loading
Personal Weather Stations






























Interactive Weather Map
Tropical Storm Tracking
New forecast layout! Learn more

10-Day Weather Forecast

Advertisements
Track Severe Weather on mobile